Time;durP1;ratioP1;P1;durP2;ratioP2;P2;SDS_P1;SDS_P2;PMS_P1;PMS_P2;Temp;Humidity;BMP_temperature;BMP_pressure;BME280_temperature;BME280_humidity;BME280_pressure;Samples;Min_cycle;Max_cycle;Signal;HPM_P1;HPM_P2
2021/08/19 00:02:36;;;;;;;4.73;4.23;;;18.40;99.60;;;;;;6338531;28;20237;-60
2021/08/19 00:05:41;;;;;;;12.53;4.60;;;18.40;99.90;;;;;;6337351;28;20233;-60
2021/08/19 00:08:44;;;;;;;4.83;3.83;;;18.50;99.90;;;;;;6333834;28;20509;-61
2021/08/19 00:11:47;;;;;;;3.67;2.90;;;18.40;99.90;;;;;;6336029;28;20667;-61
2021/08/19 00:14:50;;;;;;;5.30;3.77;;;18.40;99.90;;;;;;6310399;28;20683;-61
2021/08/19 00:17:53;;;;;;;2.97;2.77;;;18.40;99.90;;;;;;6323262;28;20654;-61
2021/08/19 00:20:58;;;;;;;5.50;3.60;;;18.50;99.90;;;;;;6334186;28;20490;-61
2021/08/19 00:24:01;;;;;;;5.83;3.60;;;18.50;99.90;;;;;;6336156;27;20218;-61
2021/08/19 00:27:04;;;;;;;4.23;3.00;;;18.50;99.90;;;;;;6336057;28;20244;-61
2021/08/19 00:30:09;;;;;;;4.20;2.80;;;18.40;99.90;;;;;;6339906;27;20222;-61
2021/08/19 00:33:12;;;;;;;4.03;3.47;;;18.40;99.90;;;;;;6331647;28;20233;-61
2021/08/19 00:36:17;;;;;;;3.40;3.10;;;18.40;99.90;;;;;;6334252;28;20225;-61
2021/08/19 00:39:20;;;;;;;4.70;2.50;;;18.40;99.90;;;;;;6336611;27;20569;-61
2021/08/19 00:42:23;;;;;;;3.73;3.17;;;18.30;99.90;;;;;;6323860;28;20217;-61
2021/08/19 00:45:28;;;;;;;2.87;2.67;;;18.30;99.90;;;;;;6335564;28;20233;-61
2021/08/19 00:48:35;;;;;;;3.43;3.13;;;18.30;99.90;;;;;;6336902;27;20626;-58
2021/08/19 00:51:40;;;;;;;4.90;2.70;;;18.30;99.90;;;;;;6333042;28;21306;-57
2021/08/19 00:54:44;;;;;;;3.50;2.73;;;18.20;99.90;;;;;;6336658;28;20537;-60
2021/08/19 00:57:48;;;;;;;3.70;3.17;;;18.20;99.90;;;;;;6329447;28;20578;-61
2021/08/19 01:00:51;;;;;;;3.00;2.70;;;18.20;99.90;;;;;;6334165;28;20311;-65
2021/08/19 01:03:56;;;;;;;3.10;2.90;;;18.10;99.90;;;;;;6332720;28;20453;-57
2021/08/19 01:07:01;;;;;;;3.80;2.67;;;18.10;99.90;;;;;;6332672;28;20468;-65
2021/08/19 01:10:05;;;;;;;5.70;2.40;;;18.10;99.90;;;;;;6338769;28;20455;-57
2021/08/19 01:13:09;;;;;;;4.97;2.80;;;18.00;99.90;;;;;;6337824;28;20467;-64
2021/08/19 01:16:12;;;;;;;3.93;2.47;;;18.00;99.90;;;;;;6332076;28;20472;-64
2021/08/19 01:19:15;;;;;;;4.73;2.90;;;17.90;99.90;;;;;;6334462;28;20451;-65
2021/08/19 01:22:21;;;;;;;3.23;2.93;;;17.90;99.90;;;;;;6334660;28;20436;-65
2021/08/19 01:25:24;;;;;;;3.10;2.80;;;17.80;99.90;;;;;;6336136;28;20433;-65
2021/08/19 01:28:28;;;;;;;4.03;2.60;;;17.80;99.90;;;;;;6339735;28;20916;-68
2021/08/19 01:31:33;;;;;;;3.43;2.70;;;17.80;99.90;;;;;;6327737;28;20456;-68
2021/08/19 01:34:36;;;;;;;2.90;2.60;;;17.80;99.90;;;;;;6328456;28;21028;-68
2021/08/19 01:37:39;;;;;;;3.10;2.90;;;17.70;99.90;;;;;;6329312;27;20478;-67
2021/08/19 01:40:42;;;;;;;3.73;3.30;;;17.70;99.90;;;;;;6322107;28;20468;-68
2021/08/19 01:43:49;;;;;;;3.10;2.80;;;17.60;99.90;;;;;;6316286;28;20472;-67
2021/08/19 01:46:53;;;;;;;3.50;2.80;;;17.50;99.90;;;;;;6303682;28;20465;-67
2021/08/19 01:49:56;;;;;;;3.47;2.50;;;17.40;99.90;;;;;;6304799;28;20460;-68
2021/08/19 01:53:00;;;;;;;3.20;2.67;;;17.50;99.90;;;;;;6304037;28;21000;-68
2021/08/19 01:56:03;;;;;;;3.17;2.87;;;17.40;99.90;;;;;;6311785;28;20473;-69
2021/08/19 01:59:07;;;;;;;5.97;2.53;;;17.30;99.90;;;;;;6315286;28;20468;-67
2021/08/19 02:02:10;;;;;;;3.33;2.63;;;17.40;99.90;;;;;;6316259;28;20486;-68
2021/08/19 02:05:14;;;;;;;2.90;2.67;;;17.40;99.90;;;;;;6329992;28;20526;-69
2021/08/19 02:08:18;;;;;;;4.17;3.40;;;17.50;99.90;;;;;;6316094;28;20468;-68
2021/08/19 02:11:21;;;;;;;3.80;2.60;;;17.40;99.90;;;;;;6315519;28;20464;-68
2021/08/19 02:14:26;;;;;;;5.10;3.40;;;17.40;99.90;;;;;;6302859;28;20851;-68
2021/08/19 02:17:29;;;;;;;3.70;2.87;;;17.40;99.90;;;;;;6302584;28;20480;-68
2021/08/19 02:20:32;;;;;;;2.80;2.60;;;17.40;99.90;;;;;;6302777;28;20461;-68
2021/08/19 02:23:35;;;;;;;3.53;3.23;;;17.40;99.90;;;;;;6310255;28;20838;-69
2021/08/19 02:26:38;;;;;;;3.23;2.57;;;17.30;99.90;;;;;;6314831;28;20472;-68
2021/08/19 02:29:43;;;;;;;3.00;2.73;;;17.30;99.90;;;;;;6314984;28;20475;-68
2021/08/19 02:32:46;;;;;;;3.00;2.70;;;17.30;99.90;;;;;;6314582;28;20968;-69
2021/08/19 02:35:50;;;;;;;3.13;2.83;;;17.30;99.90;;;;;;6314715;28;20473;-68
2021/08/19 02:38:53;;;;;;;3.80;2.63;;;17.30;99.90;;;;;;6314396;28;20480;-68
2021/08/19 02:41:56;;;;;;;3.23;2.97;;;17.20;99.90;;;;;;6315155;28;20468;-68
2021/08/19 02:45:01;;;;;;;3.40;3.10;;;17.20;99.90;;;;;;6314772;28;20472;-68
2021/08/19 02:48:04;;;;;;;3.87;3.30;;;17.10;99.90;;;;;;6314571;28;21174;-68
2021/08/19 02:51:07;;;;;;;3.57;3.27;;;17.00;99.90;;;;;;6314727;28;20468;-70
2021/08/19 02:54:11;;;;;;;3.87;3.10;;;17.10;99.90;;;;;;6302011;28;20480;-67
2021/08/19 02:57:14;;;;;;;4.03;2.40;;;17.10;99.90;;;;;;6301335;28;20994;-68
2021/08/19 03:00:18;;;;;;;3.70;3.40;;;17.10;99.90;;;;;;6301793;28;20799;-68
2021/08/19 03:03:22;;;;;;;4.67;3.20;;;17.20;99.90;;;;;;6309972;28;20454;-67
2021/08/19 03:06:25;;;;;;;4.23;2.80;;;17.30;99.90;;;;;;6313763;28;20807;-69
2021/08/19 03:09:28;;;;;;;3.50;2.80;;;17.30;99.90;;;;;;6314369;28;20464;-68
2021/08/19 03:12:31;;;;;;;4.57;3.43;;;17.30;99.90;;;;;;6314230;28;20479;-68
2021/08/19 03:15:36;;;;;;;3.83;3.37;;;17.30;99.90;;;;;;6314451;28;20492;-67
2021/08/19 03:18:39;;;;;;;2.77;2.47;;;17.30;99.90;;;;;;6313837;28;20487;-68
2021/08/19 03:21:43;;;;;;;3.53;3.20;;;17.40;99.90;;;;;;6301378;28;20476;-68
2021/08/19 03:24:46;;;;;;;4.93;3.10;;;17.30;99.90;;;;;;6301008;28;20973;-68
2021/08/19 03:27:49;;;;;;;4.77;2.77;;;17.30;99.90;;;;;;6311277;28;20808;-68
2021/08/19 03:30:54;;;;;;;4.07;3.20;;;17.30;99.90;;;;;;6317321;28;20461;-68
2021/08/19 03:33:57;;;;;;;4.50;3.50;;;17.40;99.90;;;;;;6300988;28;20469;-68
2021/08/19 03:37:01;;;;;;;4.03;3.63;;;17.30;99.90;;;;;;6300635;28;20488;-67
2021/08/19 03:40:05;;;;;;;3.23;2.93;;;17.30;99.90;;;;;;6310686;28;20476;-67
2021/08/19 03:43:08;;;;;;;4.03;3.33;;;17.40;99.90;;;;;;6313095;28;20480;-67
2021/08/19 03:46:13;;;;;;;4.20;3.27;;;17.50;99.90;;;;;;6313559;28;20472;-68
2021/08/19 03:49:16;;;;;;;3.93;3.20;;;17.50;99.90;;;;;;6313615;28;20463;-68
2021/08/19 03:52:19;;;;;;;3.50;3.20;;;17.50;99.90;;;;;;6313242;28;20887;-67
2021/08/19 03:55:23;;;;;;;4.97;3.80;;;17.50;99.90;;;;;;6313457;28;20492;-68
2021/08/19 03:58:26;;;;;;;4.60;3.37;;;17.50;99.90;;;;;;6309349;28;20823;-67
2021/08/19 04:01:30;;;;;;;4.20;3.40;;;17.60;99.90;;;;;;6299984;28;20445;-68
2021/08/19 04:04:34;;;;;;;3.87;2.80;;;17.60;99.90;;;;;;6299950;28;20454;-67
2021/08/19 04:07:37;;;;;;;5.90;2.93;;;17.50;99.90;;;;;;6300248;28;20480;-67
2021/08/19 04:10:40;;;;;;;3.53;3.10;;;17.50;99.90;;;;;;6308148;28;20507;-67
2021/08/19 04:13:43;;;;;;;4.67;3.47;;;17.60;99.90;;;;;;6312794;28;20488;-68
2021/08/19 04:16:48;;;;;;;4.10;3.37;;;17.60;99.90;;;;;;6312529;28;20468;-69
2021/08/19 04:19:51;;;;;;;4.57;3.67;;;17.50;99.90;;;;;;6314419;28;20464;-69
2021/08/19 04:22:54;;;;;;;6.73;3.53;;;17.40;99.90;;;;;;6311866;28;21030;-68
2021/08/19 04:25:57;;;;;;;3.70;3.30;;;17.50;99.90;;;;;;6316636;28;20475;-68
2021/08/19 04:29:00;;;;;;;3.93;3.53;;;17.50;99.90;;;;;;6308392;28;20812;-69
2021/08/19 04:32:05;;;;;;;4.20;3.30;;;17.50;99.90;;;;;;6312477;28;20477;-68
2021/08/19 04:35:10;;;;;;;4.03;3.63;;;17.50;99.90;;;;;;6312121;28;20872;-68
2021/08/19 04:38:13;;;;;;;4.40;3.70;;;17.60;99.90;;;;;;6311896;28;20468;-68
2021/08/19 04:41:16;;;;;;;4.40;3.03;;;17.60;99.90;;;;;;6312058;28;20475;-68
2021/08/19 04:44:19;;;;;;;5.07;3.47;;;17.60;99.90;;;;;;6311489;28;20953;-69
2021/08/19 04:47:23;;;;;;;4.07;3.67;;;17.70;99.90;;;;;;6314025;28;20469;-68
2021/08/19 04:50:27;;;;;;;5.07;3.70;;;17.70;99.90;;;;;;6312617;28;20465;-68
2021/08/19 04:53:30;;;;;;;4.10;3.30;;;17.80;99.90;;;;;;6315616;28;20785;-68
2021/08/19 04:56:37;;;;;;;3.80;3.50;;;17.80;99.90;;;;;;6301701;28;20475;-67
2021/08/19 04:59:40;;;;;;;5.00;3.40;;;17.70;99.90;;;;;;6313928;28;20476;-68
2021/08/19 05:02:45;;;;;;;8.23;3.70;;;17.80;99.90;;;;;;6311702;28;20468;-68
2021/08/19 05:05:48;;;;;;;6.10;3.27;;;17.80;99.90;;;;;;6307569;28;20465;-69
2021/08/19 05:08:51;;;;;;;6.27;3.60;;;17.90;99.90;;;;;;6311367;28;20527;-69
2021/08/19 05:11:54;;;;;;;9.47;3.77;;;18.00;99.90;;;;;;6309476;28;20464;-68
2021/08/19 05:14:58;;;;;;;5.20;3.97;;;18.10;99.90;;;;;;6311155;28;20472;-68
2021/08/19 05:18:02;;;;;;;7.40;3.50;;;18.20;99.90;;;;;;6310705;28;20492;-69
2021/08/19 05:21:08;;;;;;;4.73;3.47;;;18.30;99.90;;;;;;6298883;28;20234;-69
2021/08/19 05:24:11;;;;;;;10.17;4.30;;;18.40;99.90;;;;;;6298454;28;20954;-68
2021/08/19 05:27:14;;;;;;;5.37;3.63;;;18.50;99.90;;;;;;6309915;28;20460;-68
2021/08/19 05:30:17;;;;;;;6.53;4.07;;;18.60;99.90;;;;;;6311151;28;20975;-68
2021/08/19 05:33:22;;;;;;;4.63;3.70;;;18.70;99.90;;;;;;6310790;28;20227;-68
2021/08/19 05:36:25;;;;;;;6.70;4.00;;;18.80;99.90;;;;;;6310450;28;20226;-68
2021/08/19 05:39:28;;;;;;;6.17;3.70;;;18.90;99.90;;;;;;6311605;28;20222;-68
2021/08/19 05:42:31;;;;;;;9.20;4.80;;;19.00;99.70;;;;;;6338673;28;20228;-67
2021/08/19 05:45:35;;;;;;;8.50;3.87;;;19.20;99.40;;;;;;6317583;28;20229;-68
2021/08/19 05:48:39;;;;;;;5.93;3.83;;;19.40;98.80;;;;;;6310369;28;20237;-67
2021/08/19 05:51:42;;;;;;;6.93;4.27;;;19.60;98.20;;;;;;6310758;28;20230;-68
2021/08/19 05:54:46;;;;;;;6.60;3.80;;;19.70;97.90;;;;;;6310456;28;20260;-68
2021/08/19 05:57:51;;;;;;;6.03;4.60;;;19.80;97.80;;;;;;6310198;28;20238;-67
2021/08/19 06:00:54;;;;;;;4.83;4.20;;;19.90;97.40;;;;;;6306187;28;20230;-67
2021/08/19 06:03:59;;;;;;;9.43;4.83;;;19.80;97.00;;;;;;6308284;28;20238;-67
2021/08/19 06:07:02;;;;;;;5.23;4.43;;;19.80;96.80;;;;;;6310635;28;20233;-68
2021/08/19 06:10:07;;;;;;;6.27;4.53;;;19.80;96.40;;;;;;6311014;28;20287;-68
2021/08/19 06:13:10;;;;;;;5.80;4.93;;;19.90;96.50;;;;;;6310466;28;20226;-67
2021/08/19 06:16:13;;;;;;;12.10;5.60;;;19.90;96.40;;;;;;6310214;28;20230;-67
2021/08/19 06:19:21;;;;;;;5.60;4.27;;;19.90;96.30;;;;;;6310684;28;20211;-61
2021/08/19 06:22:24;;;;;;;4.93;3.70;;;20.00;96.30;;;;;;6314375;28;20557;-61
2021/08/19 06:25:27;;;;;;;7.90;5.10;;;20.10;96.10;;;;;;6315365;28;20210;-61
2021/08/19 06:28:30;;;;;;;5.57;4.00;;;20.30;96.00;;;;;;6314431;28;20281;-61
2021/08/19 06:31:34;;;;;;;8.50;5.57;;;20.50;95.80;;;;;;6314901;28;20226;-62
2021/08/19 06:34:39;;;;;;;5.40;3.87;;;20.50;95.60;;;;;;6314830;28;20231;-62
2021/08/19 06:37:42;;;;;;;6.17;4.70;;;20.70;95.60;;;;;;6331401;28;20295;-62
2021/08/19 06:40:45;;;;;;;6.37;4.57;;;20.70;94.50;;;;;;6323093;28;20234;-61
2021/08/19 06:43:48;;;;;;;5.80;4.30;;;20.80;94.40;;;;;;6311857;28;20246;-63
2021/08/19 06:46:52;;;;;;;5.97;4.67;;;21.10;94.20;;;;;;6311358;28;20315;-64
2021/08/19 06:49:56;;;;;;;7.20;5.13;;;21.40;93.90;;;;;;6331293;28;20275;-61
2021/08/19 06:52:59;;;;;;;6.00;4.30;;;21.70;93.00;;;;;;6342490;28;20218;-61
2021/08/19 06:56:03;;;;;;;5.90;3.77;;;21.90;92.70;;;;;;6341270;28;20213;-61
2021/08/19 06:59:06;;;;;;;9.63;5.03;;;22.10;92.30;;;;;;6314920;28;20568;-61
2021/08/19 07:02:09;;;;;;;6.67;4.90;;;22.20;92.10;;;;;;6314430;28;20237;-61
2021/08/19 07:05:14;;;;;;;9.37;4.63;;;22.80;91.20;;;;;;6301829;28;20317;-62
2021/08/19 07:08:17;;;;;;;8.23;5.03;;;23.40;90.00;;;;;;6301084;28;20234;-62
2021/08/19 07:11:20;;;;;;;9.00;5.10;;;24.30;87.10;;;;;;6301229;28;20230;-61
2021/08/19 07:14:23;;;;;;;9.30;4.30;;;25.40;82.90;;;;;;6312860;28;20241;-62
2021/08/19 07:17:27;;;;;;;5.57;4.30;;;26.20;79.80;;;;;;6314109;28;20238;-62
2021/08/19 07:20:31;;;;;;;9.20;5.07;;;28.20;73.70;;;;;;6313916;28;20230;-61
2021/08/19 07:23:34;;;;;;;5.97;5.23;;;29.20;65.50;;;;;;6314110;28;20222;-62
2021/08/19 07:26:37;;;;;;;5.90;4.70;;;29.00;63.50;;;;;;6313492;28;20237;-63
2021/08/19 07:29:41;;;;;;;7.77;4.70;;;29.10;63.00;;;;;;6313630;28;20564;-63
2021/08/19 07:32:44;;;;;;;8.10;4.73;;;29.00;59.70;;;;;;6313031;28;20230;-62
2021/08/19 07:35:49;;;;;;;10.40;5.77;;;28.50;60.60;;;;;;6311942;28;20574;-62
2021/08/19 07:38:52;;;;;;;4.30;3.90;;;28.10;61.20;;;;;;6312832;28;20237;-62
2021/08/19 07:41:55;;;;;;;7.63;4.97;;;27.70;62.40;;;;;;6311514;28;20568;-62
2021/08/19 07:44:58;;;;;;;5.63;4.40;;;27.60;62.70;;;;;;6313040;28;20229;-62
2021/08/19 07:48:08;;;;;;;9.47;6.07;;;27.90;61.40;;;;;;6312415;28;20574;-62
2021/08/19 07:51:13;;;;;;;5.20;4.70;;;27.60;61.40;;;;;;6313171;28;20241;-62
2021/08/19 07:54:17;;;;;;;9.70;4.73;;;27.70;61.60;;;;;;6312722;28;20287;-62
2021/08/19 07:57:21;;;;;;;5.73;4.80;;;27.60;61.80;;;;;;6312513;28;20233;-62
2021/08/19 08:00:26;;;;;;;5.53;4.40;;;27.30;62.90;;;;;;6323441;28;20227;-64
2021/08/19 08:03:29;;;;;;;7.17;4.37;;;27.70;62.60;;;;;;6313206;28;20308;-64
2021/08/19 08:06:34;;;;;;;6.60;4.93;;;28.10;61.00;;;;;;6312344;28;20252;-65
2021/08/19 08:09:37;;;;;;;6.83;4.80;;;27.90;60.60;;;;;;6302966;28;20229;-64
2021/08/19 08:12:41;;;;;;;8.57;5.50;;;28.20;60.40;;;;;;6312140;28;20233;-62
2021/08/19 08:15:45;;;;;;;5.47;4.63;;;29.30;58.70;;;;;;6325631;28;20229;-63
2021/08/19 08:18:49;;;;;;;5.80;4.50;;;30.50;55.90;;;;;;6324833;28;20237;-62
2021/08/19 08:21:53;;;;;;;5.40;4.70;;;30.90;54.30;;;;;;6312077;28;20221;-63
2021/08/19 08:24:57;;;;;;;6.47;5.60;;;31.00;52.80;;;;;;6311755;28;20229;-63
2021/08/19 08:28:05;;;;;;;5.03;4.45;;;31.00;52.30;;;;;;6314292;28;20294;-65
2021/08/19 08:31:08;;;;;;;3.90;3.50;;;31.20;51.60;;;;;;6311606;28;20226;-63
2021/08/19 08:34:12;;;;;;;5.18;4.10;;;31.30;51.10;;;;;;6311669;28;20255;-63
2021/08/19 08:37:16;;;;;;;7.47;4.30;;;31.90;50.30;;;;;;6311246;28;20693;-63
2021/08/19 08:40:20;;;;;;;5.95;4.65;;;32.60;48.80;;;;;;6311760;28;20217;-65
2021/08/19 08:43:25;;;;;;;10.43;5.25;;;32.80;48.10;;;;;;6311381;28;20202;-63
2021/08/19 08:46:28;;;;;;;5.20;3.92;;;32.60;47.60;;;;;;6311843;28;20225;-66
2021/08/19 08:49:32;;;;;;;7.88;3.85;;;32.50;48.30;;;;;;6311795;28;20229;-66
2021/08/19 08:52:38;;;;;;;4.70;3.90;;;32.40;49.90;;;;;;6310923;28;20236;-63
2021/08/19 08:55:42;;;;;;;8.20;4.35;;;32.20;48.10;;;;;;6311746;28;20537;-66
2021/08/19 08:58:46;;;;;;;9.25;3.90;;;31.80;48.50;;;;;;6316686;28;20685;-65
2021/08/19 09:01:49;;;;;;;7.70;4.75;;;31.70;48.50;;;;;;6321684;28;20237;-64
2021/08/19 09:05:14;;;;;;;5.97;3.20;;;31.40;48.80;;;;;;6311426;28;20232;-62
2021/08/19 09:08:21;;;;;;;4.80;4.00;;;31.00;49.30;;;;;;6298953;28;20245;-66
2021/08/19 09:11:24;;;;;;;5.00;3.97;;;30.50;50.30;;;;;;6293830;28;20261;-63
2021/08/19 09:14:30;;;;;;;4.47;3.90;;;30.10;50.70;;;;;;6298934;28;20234;-65
2021/08/19 09:17:44;;;;;;;6.67;4.70;;;29.80;51.20;;;;;;6310651;28;20252;-64
2021/08/19 09:20:47;;;;;;;4.40;3.97;;;29.60;51.60;;;;;;6298318;28;20614;-64
2021/08/19 09:24:12;;;;;;;4.80;4.40;;;29.70;52.00;;;;;;6298228;28;20234;-64
2021/08/19 09:27:18;;;;;;;4.93;3.93;;;30.40;51.10;;;;;;6303844;28;20226;-62
2021/08/19 09:30:28;;;;;;;8.18;3.78;;;30.80;50.40;;;;;;6310804;28;20280;-65
2021/08/19 09:33:33;;;;;;;7.80;5.03;;;31.00;49.70;;;;;;6310854;28;20225;-64
2021/08/19 09:36:36;;;;;;;6.82;3.80;;;31.10;49.20;;;;;;6310327;28;20318;-65
2021/08/19 09:39:42;;;;;;;6.05;4.47;;;30.90;49.30;;;;;;6306795;28;20256;-62
2021/08/19 09:42:45;;;;;;;7.63;4.25;;;30.80;48.90;;;;;;6310791;28;20234;-62
2021/08/19 09:45:49;;;;;;;5.15;3.90;;;30.50;49.00;;;;;;6297855;28;20238;-61
2021/08/19 09:48:52;;;;;;;4.73;3.80;;;30.20;48.90;;;;;;6297281;28;20698;-62
2021/08/19 09:52:03;;;;;;;7.00;4.50;;;29.90;48.90;;;;;;6298337;28;20230;-62
2021/08/19 09:55:23;;;;;;;4.63;3.40;;;30.00;49.80;;;;;;6307356;28;20222;-62
2021/08/19 09:58:31;;;;;;;4.50;3.73;;;29.90;49.60;;;;;;6310249;28;20603;-63
2021/08/19 10:01:35;;;;;;;4.40;4.00;;;30.30;49.30;;;;;;6308694;28;20564;-63
2021/08/19 10:04:39;;;;;;;6.28;3.65;;;30.60;49.60;;;;;;6313223;28;20287;-63
2021/08/19 10:07:42;;;;;;;5.28;3.92;;;30.50;47.60;;;;;;6315101;28;20296;-63
2021/08/19 10:10:47;;;;;;;3.47;3.17;;;30.50;48.20;;;;;;6313193;28;20244;-66
2021/08/19 10:13:50;;;;;;;4.38;3.65;;;30.60;47.90;;;;;;6314519;28;20234;-63
2021/08/19 10:16:55;;;;;;;4.95;4.47;;;30.90;48.00;;;;;;6315704;28;20234;-63
2021/08/19 10:20:02;;;;;;;5.15;3.72;;;31.10;47.70;;;;;;6314047;28;20218;-63
2021/08/19 10:23:06;;;;;;;5.85;3.88;;;31.20;48.20;;;;;;6310675;28;20226;-62
2021/08/19 10:26:13;;;;;;;4.22;3.63;;;31.50;48.10;;;;;;6313186;28;20731;-63
2021/08/19 10:29:16;;;;;;;3.28;2.97;;;31.50;47.70;;;;;;6313456;28;20603;-63
2021/08/19 10:32:30;;;;;;;4.55;3.88;;;31.40;46.90;;;;;;6314038;28;20237;-61
2021/08/19 10:35:33;;;;;;;5.97;3.53;;;31.30;46.10;;;;;;6313097;28;20241;-62
2021/08/19 10:38:37;;;;;;;3.47;3.17;;;31.20;46.70;;;;;;6314525;28;20239;-61
2021/08/19 10:41:47;;;;;;;4.28;3.22;;;31.10;46.70;;;;;;6314759;28;20310;-62
2021/08/19 10:45:42;;;;;;;3.35;3.05;;;30.90;45.80;;;;;;6314088;28;20231;-60
2021/08/19 10:48:52;;;;;;;3.95;2.90;;;30.70;46.50;;;;;;6301701;28;20241;-61
2021/08/19 10:51:55;;;;;;;3.78;3.42;;;30.30;46.40;;;;;;6301519;28;20256;-62
2021/08/19 10:55:16;;;;;;;4.00;3.60;;;30.30;47.00;;;;;;6301735;28;20222;-63
2021/08/19 10:58:29;;;;;;;4.00;3.20;;;30.60;47.00;;;;;;6313554;28;20249;-61
2021/08/19 11:01:32;;;;;;;2.90;2.70;;;30.90;46.60;;;;;;6301579;28;20210;-61
2021/08/19 11:04:43;;;;;;;3.97;3.67;;;31.10;46.50;;;;;;6301077;28;20373;-62
2021/08/19 11:07:53;;;;;;;3.80;3.40;;;31.00;46.60;;;;;;6301621;28;20563;-62
2021/08/19 11:10:57;;;;;;;3.78;3.47;;;31.30;46.80;;;;;;6301295;28;20226;-61
2021/08/19 11:14:08;;;;;;;3.90;3.08;;;31.40;47.00;;;;;;6301232;28;20686;-62
2021/08/19 11:17:18;;;;;;;4.05;2.83;;;31.10;45.20;;;;;;6299449;28;20235;-62
2021/08/19 11:20:28;;;;;;;3.78;3.47;;;31.00;44.60;;;;;;6313629;28;20237;-61
2021/08/19 11:23:33;;;;;;;3.92;3.03;;;30.70;45.70;;;;;;6313423;28;20230;-61
2021/08/19 11:26:36;;;;;;;5.75;2.70;;;30.50;46.70;;;;;;6313605;28;20733;-61
2021/08/19 11:29:43;;;;;;;3.65;2.78;;;30.60;45.70;;;;;;6313735;28;20237;-61
2021/08/19 11:33:14;;;;;;;5.07;3.22;;;30.60;46.00;;;;;;6300784;28;20361;-61
2021/08/19 11:36:18;;;;;;;3.70;3.40;;;30.80;47.20;;;;;;6300760;28;20234;-63
2021/08/19 11:39:28;;;;;;;4.28;3.53;;;31.10;47.30;;;;;;6303316;28;20229;-64
2021/08/19 11:42:33;;;;;;;3.25;2.95;;;30.90;47.10;;;;;;6322989;28;20233;-62
2021/08/19 11:45:38;;;;;;;3.80;3.13;;;30.10;47.60;;;;;;6313938;28;20699;-63
2021/08/19 11:48:49;;;;;;;5.95;3.13;;;30.40;49.30;;;;;;6300296;28;20230;-64
2021/08/19 11:52:01;;;;;;;3.53;2.72;;;30.50;46.50;;;;;;6300461;28;20230;-64
2021/08/19 11:55:06;;;;;;;5.20;3.15;;;31.10;45.10;;;;;;6312677;28;20298;-64
2021/08/19 11:58:19;;;;;;;2.58;2.30;;;31.20;44.30;;;;;;6325429;28;20252;-63
2021/08/19 12:01:25;;;;;;;3.72;2.92;;;31.00;44.30;;;;;;6337161;28;20235;-63
2021/08/19 12:04:29;;;;;;;6.43;3.10;;;30.80;44.60;;;;;;6339915;28;20563;-63
2021/08/19 12:07:33;;;;;;;3.03;2.72;;;30.70;44.00;;;;;;6338655;28;20677;-62
2021/08/19 12:10:37;;;;;;;4.80;3.35;;;30.70;44.40;;;;;;6339037;28;20243;-63
2021/08/19 12:13:41;;;;;;;4.50;3.65;;;31.10;43.80;;;;;;6302340;28;20701;-63
2021/08/19 12:16:50;;;;;;;4.40;3.55;;;31.30;44.20;;;;;;6307129;28;20251;-62
2021/08/19 12:20:10;;;;;;;3.90;3.22;;;31.60;44.80;;;;;;6310874;28;20233;-66
2021/08/19 12:23:21;;;;;;;2.92;2.53;;;31.50;44.10;;;;;;6299158;28;20234;-61
2021/08/19 12:26:25;;;;;;;5.72;3.95;;;31.40;44.70;;;;;;6299607;28;20233;-62
2021/08/19 12:29:28;;;;;;;3.60;3.10;;;31.00;45.20;;;;;;6300825;28;20253;-62
2021/08/19 12:32:35;;;;;;;3.33;3.03;;;31.00;44.10;;;;;;6311556;28;20221;-62
2021/08/19 12:35:38;;;;;;;4.07;3.15;;;31.20;43.70;;;;;;6312229;28;20569;-63
2021/08/19 12:38:43;;;;;;;3.95;3.10;;;31.30;43.80;;;;;;6311473;28;20230;-63
2021/08/19 12:41:47;;;;;;;5.45;3.47;;;31.50;44.90;;;;;;6312267;28;20554;-63
2021/08/19 12:45:05;;;;;;;3.90;3.22;;;31.40;43.80;;;;;;6310901;28;20298;-63
2021/08/19 12:48:11;;;;;;;3.53;2.72;;;31.00;41.40;;;;;;6298932;28;20297;-63
2021/08/19 12:51:23;;;;;;;3.65;3.10;;;30.90;41.10;;;;;;6298570;28;20567;-62
2021/08/19 12:54:26;;;;;;;3.58;2.80;;;31.00;41.50;;;;;;6299051;28;20230;-63
2021/08/19 12:57:35;;;;;;;3.10;2.80;;;31.10;41.60;;;;;;6299795;28;20238;-63
2021/08/19 13:00:38;;;;;;;4.40;2.97;;;31.00;42.20;;;;;;6333424;28;20226;-63
2021/08/19 13:03:43;;;;;;;3.40;3.10;;;31.10;41.70;;;;;;6310851;28;20230;-63
2021/08/19 13:06:47;;;;;;;5.47;4.70;;;31.20;42.20;;;;;;6298597;28;20241;-63
2021/08/19 13:09:50;;;;;;;3.95;3.55;;;31.00;41.80;;;;;;6306197;28;20217;-63
2021/08/19 13:12:53;;;;;;;3.33;2.83;;;30.70;42.30;;;;;;6314169;28;20229;-63
2021/08/19 13:15:58;;;;;;;3.17;2.87;;;30.40;42.60;;;;;;6310043;28;20305;-62
2021/08/19 13:19:04;;;;;;;4.03;2.87;;;30.20;43.10;;;;;;6298084;28;20226;-62
2021/08/19 13:22:07;;;;;;;3.60;3.30;;;30.10;44.40;;;;;;6297873;28;20234;-62
2021/08/19 13:25:11;;;;;;;4.60;3.40;;;29.90;45.20;;;;;;6289292;28;20229;-63
2021/08/19 13:28:15;;;;;;;3.77;3.17;;;29.80;46.00;;;;;;6309891;28;20225;-64
2021/08/19 13:31:20;;;;;;;3.60;3.00;;;29.80;45.30;;;;;;6311145;28;20206;-62
2021/08/19 13:34:24;;;;;;;3.40;3.10;;;29.50;46.30;;;;;;6310052;28;20214;-62
2021/08/19 13:37:28;;;;;;;5.13;3.67;;;29.10;46.70;;;;;;6310921;28;20671;-63
2021/08/19 13:40:31;;;;;;;5.60;5.10;;;28.60;47.10;;;;;;6311224;28;20274;-67
2021/08/19 13:43:34;;;;;;;4.63;3.53;;;28.50;47.80;;;;;;6307599;28;20245;-68
2021/08/19 13:46:37;;;;;;;3.30;2.93;;;28.60;47.20;;;;;;6308148;28;20241;-67
2021/08/19 13:49:42;;;;;;;3.70;3.00;;;28.90;47.00;;;;;;6309078;28;20687;-71
2021/08/19 13:52:45;;;;;;;5.20;4.70;;;28.90;46.80;;;;;;6310650;28;20616;-70
2021/08/19 13:55:49;;;;;;;3.60;2.90;;;28.80;46.80;;;;;;6310723;28;20566;-70
2021/08/19 13:58:52;;;;;;;4.57;3.67;;;28.70;46.30;;;;;;6310794;28;20238;-70
2021/08/19 14:01:56;;;;;;;3.10;2.90;;;28.70;46.30;;;;;;6310937;28;20240;-71
2021/08/19 14:05:01;;;;;;;3.17;2.90;;;28.50;46.30;;;;;;6308256;28;20230;-71
2021/08/19 14:08:05;;;;;;;3.57;3.07;;;28.60;46.40;;;;;;6309825;28;20265;-70
2021/08/19 14:11:08;;;;;;;4.03;3.20;;;28.70;46.50;;;;;;6312174;28;20240;-72
2021/08/19 14:14:11;;;;;;;4.47;4.07;;;28.60;46.70;;;;;;6307987;28;20218;-70
2021/08/19 14:17:15;;;;;;;3.30;2.93;;;28.50;47.10;;;;;;6307065;28;20230;-71
2021/08/19 14:20:20;;;;;;;5.40;3.27;;;28.40;47.30;;;;;;6308537;28;20241;-70
2021/08/19 14:23:23;;;;;;;3.03;2.70;;;28.20;48.00;;;;;;6312390;28;20244;-70
2021/08/19 14:26:27;;;;;;;4.90;3.40;;;28.30;48.80;;;;;;6305102;28;20703;-69
2021/08/19 14:29:30;;;;;;;3.10;2.80;;;28.10;48.90;;;;;;6309789;28;20229;-71
2021/08/19 14:32:34;;;;;;;4.50;3.20;;;28.20;49.10;;;;;;6310372;28;20226;-70
2021/08/19 14:35:38;;;;;;;4.17;3.07;;;28.10;49.30;;;;;;6310024;28;20233;-69
2021/08/19 14:38:42;;;;;;;4.00;3.40;;;28.10;49.40;;;;;;6308468;28;20225;-69
2021/08/19 14:41:45;;;;;;;3.63;2.73;;;27.90;49.60;;;;;;6306737;28;20236;-70
2021/08/19 14:44:48;;;;;;;3.93;3.53;;;27.80;50.20;;;;;;6309278;28;20225;-71
2021/08/19 14:47:51;;;;;;;6.60;4.00;;;27.80;50.10;;;;;;6314399;28;20240;-70
2021/08/19 14:50:57;;;;;;;3.10;2.83;;;27.90;50.00;;;;;;6301888;28;20241;-70
2021/08/19 14:54:00;;;;;;;3.60;3.27;;;27.90;49.80;;;;;;6301632;28;20320;-70
2021/08/19 14:57:04;;;;;;;5.43;3.40;;;27.70;49.90;;;;;;6308491;28;20578;-70
2021/08/19 15:00:08;;;;;;;3.43;3.13;;;27.60;49.80;;;;;;6314409;28;20229;-70
2021/08/19 15:03:11;;;;;;;3.33;3.03;;;27.50;50.00;;;;;;6301562;28;20233;-71
2021/08/19 15:06:16;;;;;;;5.50;2.87;;;27.50;50.20;;;;;;6301411;28;20230;-70
2021/08/19 15:09:19;;;;;;;3.60;3.30;;;27.60;50.60;;;;;;6305784;28;20240;-71
2021/08/19 15:12:25;;;;;;;5.03;3.50;;;27.70;50.30;;;;;;6314175;28;20623;-70
2021/08/19 15:15:28;;;;;;;3.20;2.90;;;27.40;50.70;;;;;;6308454;28;20683;-71
2021/08/19 15:18:31;;;;;;;3.30;3.00;;;27.40;50.60;;;;;;6313521;28;20679;-72
2021/08/19 15:21:37;;;;;;;3.33;3.03;;;27.50;51.00;;;;;;6315899;28;20579;-72
2021/08/19 15:24:46;;;;;;;4.67;2.93;;;27.70;51.00;;;;;;6313571;28;20322;-72
2021/08/19 15:27:49;;;;;;;3.67;3.23;;;27.80;50.40;;;;;;6313026;28;20663;-70
2021/08/19 15:30:52;;;;;;;6.17;3.80;;;27.80;50.30;;;;;;6308513;28;20229;-71
2021/08/19 15:33:55;;;;;;;3.77;3.27;;;27.80;50.80;;;;;;6313077;28;20234;-70
2021/08/19 15:37:00;;;;;;;3.47;3.00;;;27.70;50.80;;;;;;6313128;28;20230;-70
2021/08/19 15:40:04;;;;;;;4.10;3.63;;;27.50;50.60;;;;;;6300404;28;20230;-71
2021/08/19 15:43:07;;;;;;;3.80;3.40;;;27.30;51.30;;;;;;6310542;28;20236;-70
2021/08/19 15:46:11;;;;;;;4.87;3.57;;;27.20;51.30;;;;;;6312977;28;20678;-66
2021/08/19 15:49:14;;;;;;;6.80;3.67;;;27.00;51.60;;;;;;6309283;28;20202;-63
2021/08/19 15:52:20;;;;;;;8.20;3.17;;;27.00;52.10;;;;;;6298431;28;20240;-65
2021/08/19 15:55:23;;;;;;;3.40;3.10;;;26.80;52.40;;;;;;6297482;28;20772;-66
2021/08/19 15:58:28;;;;;;;3.40;3.10;;;26.70;52.90;;;;;;6298030;28;20237;-68
2021/08/19 16:01:32;;;;;;;4.30;3.90;;;26.70;53.10;;;;;;6317872;28;20222;-68